createdAt,value
2019-03-19T00:00:39.542Z,19.70
2019-03-19T00:03:10.512Z,19.70
2019-03-19T00:05:41.599Z,19.70
2019-03-19T00:08:12.695Z,19.60
2019-03-19T00:10:43.724Z,19.60
2019-03-19T00:13:16.106Z,19.70
2019-03-19T00:15:47.155Z,19.70
2019-03-19T00:18:20.967Z,19.70
2019-03-19T00:20:52.048Z,19.70
2019-03-19T00:23:23.042Z,19.70
2019-03-19T00:25:54.193Z,19.60
2019-03-19T00:28:25.230Z,19.60
2019-03-19T00:30:56.288Z,19.60
2019-03-19T00:33:27.305Z,19.60
2019-03-19T00:35:58.405Z,19.60
2019-03-19T00:38:29.541Z,19.60
2019-03-19T00:41:00.587Z,19.60
2019-03-19T00:43:31.636Z,19.60
2019-03-19T00:46:02.755Z,19.60
2019-03-19T00:48:33.770Z,19.60
2019-03-19T00:51:05.999Z,19.60
2019-03-19T00:53:37.024Z,19.60
2019-03-19T00:56:08.223Z,19.60
2019-03-19T00:58:39.405Z,19.60
2019-03-19T01:01:12.084Z,19.60
2019-03-19T01:03:43.165Z,19.60
2019-03-19T01:06:14.315Z,19.60
2019-03-19T01:08:45.378Z,19.60
2019-03-19T01:11:16.633Z,19.60
2019-03-19T01:13:47.745Z,19.60
2019-03-19T01:16:18.838Z,19.60
2019-03-19T01:18:50.017Z,19.60
2019-03-19T01:21:21.397Z,19.60
2019-03-19T01:23:52.404Z,19.60
2019-03-19T01:26:26.573Z,19.60
2019-03-19T01:28:57.687Z,19.60
2019-03-19T01:31:28.901Z,19.60
2019-03-19T01:33:59.856Z,19.60
2019-03-19T01:36:30.964Z,19.60
2019-03-19T01:39:02.087Z,19.60
2019-03-19T01:41:34.260Z,19.60
2019-03-19T01:44:05.217Z,19.60
2019-03-19T01:46:36.389Z,19.60
2019-03-19T01:49:07.436Z,19.60
2019-03-19T01:51:38.514Z,19.50
2019-03-19T01:54:09.647Z,19.60
2019-03-19T01:56:40.717Z,19.60
2019-03-19T01:59:11.640Z,19.60
2019-03-19T02:01:42.904Z,19.60
2019-03-19T02:04:13.856Z,19.60
2019-03-19T02:06:44.901Z,19.50
2019-03-19T02:09:15.981Z,19.50
2019-03-19T02:11:47.039Z,19.50
2019-03-19T02:14:18.154Z,19.50
2019-03-19T02:16:49.204Z,19.50
2019-03-19T02:19:20.188Z,19.50
2019-03-19T02:21:54.695Z,19.50
2019-03-19T02:24:36.773Z,19.60
2019-03-19T02:27:19.736Z,19.50
2019-03-19T02:30:05.247Z,19.60
2019-03-19T02:32:36.432Z,19.50
2019-03-19T02:35:08.390Z,19.50
2019-03-19T02:37:39.438Z,19.50
2019-03-19T02:40:10.899Z,19.50
2019-03-19T02:42:41.956Z,19.50
2019-03-19T02:45:13.914Z,19.50
2019-03-19T02:47:44.976Z,19.50
2019-03-19T02:50:16.088Z,19.50
2019-03-19T02:52:47.237Z,19.50
2019-03-19T02:55:19.372Z,19.50
2019-03-19T02:57:50.464Z,19.50
2019-03-19T03:00:21.604Z,19.50
2019-03-19T03:02:52.814Z,19.50
2019-03-19T03:05:23.957Z,19.50
2019-03-19T03:07:55.011Z,19.50
2019-03-19T03:10:26.130Z,19.50
2019-03-19T03:12:57.305Z,19.50
2019-03-19T03:15:28.484Z,19.50
2019-03-19T03:17:59.718Z,19.50
2019-03-19T03:20:31.341Z,19.50
2019-03-19T03:23:02.526Z,19.50
2019-03-19T03:25:33.951Z,19.50
2019-03-19T03:28:05.117Z,19.60
2019-03-19T03:30:42.698Z,19.50
2019-03-19T03:33:26.559Z,19.60
2019-03-19T03:35:58.086Z,19.50
2019-03-19T03:38:37.756Z,19.50
2019-03-19T03:41:11.993Z,19.50
2019-03-19T03:43:52.355Z,19.60
2019-03-19T03:46:25.990Z,19.60
2019-03-19T03:49:02.426Z,19.60
2019-03-19T03:51:34.311Z,19.50
2019-03-19T03:54:10.825Z,19.50
2019-03-19T03:57:00.942Z,19.50
2019-03-19T03:59:22.620Z,19.50
2019-03-19T04:02:02.418Z,19.50
2019-03-19T04:04:38.730Z,19.50
2019-03-19T04:07:18.479Z,19.50
2019-03-19T04:09:52.203Z,19.50
2019-03-19T04:12:29.914Z,19.50
2019-03-19T04:15:06.484Z,19.50
2019-03-19T04:17:43.801Z,19.50
2019-03-19T04:20:16.503Z,19.50
2019-03-19T04:22:51.796Z,19.50
2019-03-19T04:25:38.774Z,19.50
2019-03-19T04:28:12.495Z,19.50
2019-03-19T04:30:46.512Z,19.50
2019-03-19T04:33:29.585Z,19.40
2019-03-19T04:36:01.672Z,19.40
2019-03-19T04:38:37.668Z,19.40
2019-03-19T04:41:24.146Z,19.40
2019-03-19T04:43:57.020Z,19.50
2019-03-19T04:46:29.781Z,19.50
2019-03-19T04:49:02.788Z,19.40
2019-03-19T04:51:34.091Z,19.40
2019-03-19T04:54:06.993Z,19.50
2019-03-19T04:56:43.151Z,19.50
2019-03-19T04:59:14.456Z,19.50
2019-03-19T05:01:45.566Z,19.40
2019-03-19T05:04:16.566Z,19.40
2019-03-19T05:06:48.799Z,19.30
2019-03-19T05:09:23.461Z,19.30
2019-03-19T05:11:58.707Z,19.30
2019-03-19T05:26:57.190Z,19.30
2019-03-19T05:29:26.847Z,19.40
2019-03-19T05:31:56.555Z,19.40
2019-03-19T05:34:26.215Z,19.40
2019-03-19T05:36:55.884Z,19.40
2019-03-19T05:39:25.547Z,19.40
2019-03-19T05:41:55.223Z,19.40
2019-03-19T05:44:24.991Z,19.40
2019-03-19T05:46:54.654Z,19.40
2019-03-19T05:49:24.315Z,19.40
2019-03-19T05:51:53.986Z,19.40
2019-03-19T05:54:23.642Z,19.40
2019-03-19T05:56:53.312Z,19.40
2019-03-19T05:59:22.971Z,19.40
2019-03-19T06:01:52.670Z,19.40
2019-03-19T06:04:22.318Z,19.40
2019-03-19T06:06:51.992Z,19.40
2019-03-19T06:09:21.698Z,19.40
2019-03-19T06:11:51.462Z,19.40
2019-03-19T06:14:21.327Z,19.40
2019-03-19T06:16:51.004Z,19.30
2019-03-19T06:19:20.660Z,19.30
2019-03-19T06:21:50.322Z,19.30
2019-03-19T06:24:21.157Z,19.30
2019-03-19T06:26:50.886Z,19.30
2019-03-19T06:29:20.547Z,19.30
2019-03-19T06:31:50.261Z,19.30
2019-03-19T06:34:19.911Z,19.30
2019-03-19T06:36:49.623Z,19.30
2019-03-19T06:39:19.295Z,19.30
2019-03-19T06:41:48.959Z,19.20
2019-03-19T06:44:18.626Z,19.30
2019-03-19T06:46:48.355Z,19.30
2019-03-19T06:49:18.026Z,19.20
2019-03-19T06:51:47.684Z,19.20
2019-03-19T06:54:17.351Z,19.20
2019-03-19T06:56:47.019Z,19.20
2019-03-19T06:59:16.682Z,19.30
2019-03-19T07:01:46.347Z,19.20
2019-03-19T07:04:17.154Z,19.30
2019-03-19T07:06:46.835Z,19.70
2019-03-19T07:09:16.502Z,20.10
2019-03-19T07:11:46.172Z,20.40
2019-03-19T07:14:15.899Z,20.80
2019-03-19T07:16:46.707Z,21.30
2019-03-19T07:19:16.380Z,22.00
2019-03-19T07:21:46.031Z,22.50
2019-03-19T07:24:15.690Z,23.00
2019-03-19T07:26:45.347Z,23.50
2019-03-19T07:29:15.008Z,23.80
2019-03-19T07:31:44.683Z,24.20
2019-03-19T07:34:14.394Z,24.50
2019-03-19T07:36:45.225Z,24.70
2019-03-19T07:39:14.901Z,24.80
2019-03-19T07:41:44.551Z,24.80
2019-03-19T07:44:14.231Z,24.90
2019-03-19T07:46:45.867Z,25.00
2019-03-19T07:49:15.344Z,25.10
2019-03-19T07:51:46.090Z,25.20
2019-03-19T07:54:15.763Z,25.30
2019-03-19T07:56:45.419Z,25.30
2019-03-19T07:59:15.091Z,25.40
2019-03-19T08:01:44.767Z,25.50
2019-03-19T08:04:14.436Z,25.60
2019-03-19T08:06:44.174Z,25.70
2019-03-19T08:09:13.915Z,25.80
2019-03-19T08:11:43.580Z,26.00
2019-03-19T08:14:13.335Z,26.10
2019-03-19T08:16:43.089Z,26.10
2019-03-19T08:19:12.763Z,26.10
2019-03-19T08:21:42.426Z,26.10
2019-03-19T08:24:12.095Z,26.10
2019-03-19T08:26:41.756Z,26.10
2019-03-19T08:29:11.442Z,26.10
2019-03-19T08:31:41.126Z,26.00
2019-03-19T08:34:10.799Z,25.90
2019-03-19T08:36:40.553Z,25.70
2019-03-19T08:39:10.219Z,25.60
2019-03-19T08:41:39.884Z,25.50
2019-03-19T08:44:09.595Z,25.40
2019-03-19T08:46:39.383Z,25.40
2019-03-19T08:49:09.059Z,25.40
2019-03-19T08:51:38.736Z,25.50
2019-03-19T08:54:08.415Z,25.70
2019-03-19T08:56:38.075Z,25.70
2019-03-19T08:59:07.755Z,25.30
2019-03-19T09:01:37.428Z,25.10
2019-03-19T09:04:07.098Z,24.80
2019-03-19T09:06:36.764Z,24.60
2019-03-19T09:09:08.947Z,24.10
2019-03-19T09:11:38.737Z,23.80
2019-03-19T09:14:08.484Z,23.80
2019-03-19T09:16:38.138Z,24.30
2019-03-19T09:19:07.896Z,24.60
2019-03-19T09:21:37.625Z,25.00
2019-03-19T09:24:07.372Z,25.20
2019-03-19T09:26:37.036Z,25.40
2019-03-19T09:29:16.478Z,25.50
2019-03-19T09:31:38.211Z,25.00
2019-03-19T09:34:07.899Z,24.70
2019-03-19T09:36:37.642Z,24.20
2019-03-19T09:39:08.739Z,24.00
2019-03-19T09:41:38.552Z,23.90
2019-03-19T09:44:08.295Z,24.30
2019-03-19T09:46:37.952Z,24.70
2019-03-19T09:49:07.623Z,24.50
2019-03-19T09:51:37.302Z,24.90
2019-03-19T09:54:06.972Z,25.30
2019-03-19T09:56:36.630Z,25.50
2019-03-19T09:59:06.325Z,25.50
2019-03-19T10:01:36.142Z,25.10
2019-03-19T10:04:05.834Z,25.20
2019-03-19T10:06:35.504Z,24.90
2019-03-19T10:09:08.131Z,24.60
2019-03-19T10:11:37.806Z,24.20
2019-03-19T10:14:07.482Z,24.10
2019-03-19T10:16:37.279Z,23.90
2019-03-19T10:19:06.947Z,23.80
2019-03-19T10:21:36.607Z,23.80
2019-03-19T10:24:06.551Z,23.80
2019-03-19T10:26:37.183Z,23.70
2019-03-19T10:29:07.526Z,23.50
2019-03-19T10:31:37.212Z,23.40
2019-03-19T10:34:06.988Z,23.50
2019-03-19T10:36:36.671Z,23.60
2019-03-19T10:39:09.133Z,23.30
2019-03-19T10:41:39.194Z,23.00
2019-03-19T10:44:08.867Z,22.80
2019-03-19T10:46:38.535Z,22.60
2019-03-19T10:49:08.270Z,22.50
2019-03-19T10:51:38.022Z,22.30
2019-03-19T10:54:07.674Z,22.20
2019-03-19T10:56:38.902Z,22.30
2019-03-19T10:59:08.779Z,22.30
2019-03-19T11:01:38.462Z,22.70
2019-03-19T11:04:08.198Z,22.70
2019-03-19T11:06:37.875Z,22.50
2019-03-19T11:09:08.244Z,22.30
2019-03-19T11:11:37.969Z,22.20
2019-03-19T11:14:07.715Z,22.10
2019-03-19T11:16:37.379Z,22.10
2019-03-19T11:19:07.049Z,22.10
2019-03-19T11:21:36.719Z,22.10
2019-03-19T11:24:06.450Z,22.10
2019-03-19T11:26:36.119Z,21.90
2019-03-19T11:29:05.928Z,21.80
2019-03-19T11:31:35.603Z,21.80
2019-03-19T11:34:05.414Z,21.80
2019-03-19T11:36:35.090Z,22.20
2019-03-19T11:39:08.406Z,22.50
2019-03-19T11:41:38.225Z,22.70
2019-03-19T11:44:07.959Z,22.70
2019-03-19T11:46:37.639Z,22.50
2019-03-19T11:49:07.367Z,22.20
2019-03-19T11:51:37.034Z,22.10
2019-03-19T11:54:06.702Z,21.90
2019-03-19T11:56:36.383Z,21.80
2019-03-19T11:59:06.119Z,21.80
2019-03-19T12:01:35.810Z,22.00
2019-03-19T12:04:05.568Z,22.10
2019-03-19T12:06:35.264Z,22.20
2019-03-19T12:09:08.047Z,22.10
2019-03-19T12:11:37.727Z,21.90
2019-03-19T12:14:07.406Z,21.90
2019-03-19T12:16:37.091Z,21.80
2019-03-19T12:19:06.840Z,21.80
2019-03-19T12:21:36.522Z,21.80
2019-03-19T12:24:06.288Z,21.80
2019-03-19T12:26:36.043Z,21.80
2019-03-19T12:29:05.727Z,21.70
2019-03-19T12:31:35.446Z,21.60
2019-03-19T12:34:05.295Z,21.50
2019-03-19T12:36:34.983Z,21.40
2019-03-19T12:39:09.668Z,21.40
2019-03-19T12:41:39.350Z,21.40
2019-03-19T12:44:09.023Z,21.40
2019-03-19T12:46:38.702Z,21.40
2019-03-19T12:49:08.383Z,21.40
2019-03-19T12:51:38.067Z,21.40
2019-03-19T12:54:07.815Z,21.40
2019-03-19T12:56:37.498Z,21.40
2019-03-19T12:59:07.172Z,21.40
2019-03-19T13:01:36.952Z,21.40
2019-03-19T13:04:07.978Z,21.30
2019-03-19T13:06:38.641Z,21.30
2019-03-19T13:09:08.593Z,21.30
2019-03-19T13:11:39.420Z,21.20
2019-03-19T13:14:09.178Z,21.20
2019-03-19T13:16:38.867Z,21.20
2019-03-19T13:19:08.547Z,21.30
2019-03-19T13:21:38.307Z,21.30
2019-03-19T13:24:07.982Z,21.30
2019-03-19T13:26:37.671Z,21.20
2019-03-19T13:29:07.348Z,21.20
2019-03-19T13:31:37.040Z,21.20
2019-03-19T13:34:06.719Z,21.10
2019-03-19T13:36:36.415Z,21.10
2019-03-19T13:39:08.386Z,21.00
2019-03-19T13:41:38.152Z,21.00
2019-03-19T13:44:07.891Z,21.00
2019-03-19T13:46:37.584Z,20.90
2019-03-19T13:49:07.259Z,20.80
2019-03-19T13:51:36.945Z,20.80
2019-03-19T13:54:06.639Z,20.80
2019-03-19T13:56:36.395Z,20.80
2019-03-19T13:59:06.061Z,20.80
2019-03-19T14:01:35.749Z,20.80
2019-03-19T14:04:05.501Z,20.80
2019-03-19T14:06:35.191Z,20.80
2019-03-19T14:09:08.065Z,20.80
2019-03-19T14:11:37.795Z,20.80
2019-03-19T14:14:07.547Z,20.80
2019-03-19T14:16:37.227Z,20.70
2019-03-19T14:19:06.986Z,20.70
2019-03-19T14:21:36.739Z,20.70
2019-03-19T14:24:06.418Z,20.70
2019-03-19T14:26:36.100Z,20.70
2019-03-19T14:29:05.972Z,20.70
2019-03-19T14:31:35.664Z,20.60
2019-03-19T14:34:05.599Z,20.70
2019-03-19T14:36:35.279Z,20.70
2019-03-19T14:39:08.493Z,20.60
2019-03-19T14:41:38.253Z,20.70
2019-03-19T14:44:09.001Z,20.60
2019-03-19T14:46:38.677Z,20.60
2019-03-19T14:49:08.359Z,20.60
2019-03-19T14:51:38.195Z,20.60
2019-03-19T14:54:10.466Z,20.60
2019-03-19T14:56:39.456Z,20.60
2019-03-19T14:59:09.227Z,20.60
2019-03-19T15:01:38.907Z,20.60
2019-03-19T15:04:08.595Z,20.60
2019-03-19T15:06:38.274Z,20.60
2019-03-19T15:09:08.027Z,20.60
2019-03-19T15:11:37.947Z,20.60
2019-03-19T15:14:07.711Z,20.60
2019-03-19T15:16:37.412Z,20.60
2019-03-19T15:19:07.139Z,20.60
2019-03-19T15:21:36.911Z,20.60
2019-03-19T15:24:06.599Z,20.60
2019-03-19T15:26:36.351Z,20.60
2019-03-19T15:29:06.040Z,20.60
2019-03-19T15:31:35.712Z,20.50
2019-03-19T15:34:05.554Z,20.50
2019-03-19T15:36:35.228Z,20.50
2019-03-19T15:39:07.635Z,20.50
2019-03-19T15:41:37.306Z,20.50
2019-03-19T15:44:06.987Z,20.50
2019-03-19T15:46:36.666Z,20.50
2019-03-19T15:49:06.353Z,20.50
2019-03-19T15:51:36.023Z,20.40
2019-03-19T15:54:05.998Z,20.40
2019-03-19T15:56:35.670Z,20.40
2019-03-19T15:59:05.360Z,20.40
2019-03-19T16:01:40.431Z,20.40
2019-03-19T16:04:06.421Z,20.40
2019-03-19T16:06:36.091Z,20.30
2019-03-19T16:09:08.463Z,20.30
2019-03-19T16:11:38.127Z,20.30
2019-03-19T16:14:07.808Z,20.40
2019-03-19T16:16:37.567Z,20.40
2019-03-19T16:19:07.260Z,20.40
2019-03-19T16:21:37.044Z,20.30
2019-03-19T16:24:06.813Z,20.30
2019-03-19T16:26:36.864Z,20.30
2019-03-19T16:29:06.542Z,20.40
2019-03-19T16:31:36.291Z,20.40
2019-03-19T16:34:06.052Z,20.40
2019-03-19T16:36:35.729Z,20.40
2019-03-19T16:39:07.301Z,20.40
2019-03-19T16:41:37.047Z,20.40
2019-03-19T16:44:06.869Z,20.40
2019-03-19T16:46:36.519Z,20.40
2019-03-19T16:49:06.278Z,20.40
2019-03-19T16:51:36.011Z,20.30
2019-03-19T16:54:05.764Z,20.40
2019-03-19T16:56:35.565Z,20.30
2019-03-19T16:59:05.307Z,20.30
2019-03-19T17:01:34.987Z,20.30
2019-03-19T17:04:05.025Z,20.30
2019-03-19T17:06:34.771Z,20.30
2019-03-19T17:09:07.399Z,20.20
2019-03-19T17:11:37.095Z,20.20
2019-03-19T17:14:06.853Z,20.20
2019-03-19T17:16:36.537Z,20.20
2019-03-19T17:19:06.296Z,20.20
2019-03-19T17:21:35.994Z,20.20
2019-03-19T17:24:06.050Z,20.10
2019-03-19T17:26:35.795Z,20.20
2019-03-19T17:29:05.542Z,20.10
2019-03-19T17:31:35.279Z,20.10
2019-03-19T17:34:06.153Z,20.10
2019-03-19T17:36:35.840Z,20.00
2019-03-19T17:39:07.959Z,20.00
2019-03-19T17:41:37.774Z,20.00
2019-03-19T17:44:07.455Z,20.00
2019-03-19T17:46:37.131Z,20.00
2019-03-19T17:49:06.855Z,20.00
2019-03-19T17:51:36.631Z,20.00
2019-03-19T17:54:06.391Z,20.00
2019-03-19T17:56:49.707Z,20.00
2019-03-19T17:59:19.387Z,20.00
2019-03-19T18:01:49.076Z,20.00
2019-03-19T18:04:18.771Z,20.10
2019-03-19T18:06:48.439Z,20.10
2019-03-19T18:09:18.130Z,20.10
2019-03-19T18:11:47.798Z,20.10
2019-03-19T18:14:17.479Z,20.10
2019-03-19T18:16:47.153Z,20.10
2019-03-19T18:19:16.835Z,20.10
2019-03-19T18:21:46.503Z,20.10
2019-03-19T18:24:16.203Z,20.10
2019-03-19T18:26:45.895Z,20.10
2019-03-19T18:29:15.588Z,20.10
2019-03-19T18:31:45.270Z,20.10
2019-03-19T18:34:15.051Z,20.20
2019-03-19T18:36:44.891Z,20.20
2019-03-19T18:39:14.575Z,19.90
2019-03-19T18:41:44.265Z,19.40
2019-03-19T18:44:13.954Z,19.00
2019-03-19T18:46:43.636Z,18.80
2019-03-19T18:49:13.400Z,18.60
2019-03-19T18:51:43.070Z,18.60
2019-03-19T18:54:12.943Z,18.40
2019-03-19T18:56:42.636Z,18.20
2019-03-19T18:59:12.340Z,18.10
2019-03-19T19:01:42.596Z,18.10
2019-03-19T19:04:12.282Z,18.10
2019-03-19T19:06:41.954Z,18.20
2019-03-19T19:09:11.743Z,18.20
2019-03-19T19:11:41.571Z,18.20
2019-03-19T19:14:11.257Z,18.20
2019-03-19T19:16:40.934Z,18.20
2019-03-19T19:19:10.624Z,18.20
2019-03-19T19:21:40.302Z,18.20
2019-03-19T19:24:09.979Z,18.30
2019-03-19T19:26:39.675Z,18.30
2019-03-19T19:29:09.350Z,18.20
2019-03-19T19:31:39.037Z,18.00
2019-03-19T19:34:08.704Z,18.00
2019-03-19T19:36:38.417Z,18.10
2019-03-19T19:39:08.695Z,18.20
2019-03-19T19:41:38.378Z,18.30
2019-03-19T19:44:08.067Z,18.00
2019-03-19T19:46:38.064Z,18.10
2019-03-19T19:49:07.783Z,18.10
2019-03-19T19:51:37.475Z,18.20
2019-03-19T19:54:07.218Z,18.20
2019-03-19T19:56:37.892Z,18.20
2019-03-19T19:59:07.583Z,18.20
2019-03-19T20:01:38.242Z,18.20
2019-03-19T20:04:07.920Z,18.20
2019-03-19T20:06:37.611Z,18.20
2019-03-19T20:09:08.416Z,18.20
2019-03-19T20:11:38.718Z,18.20
2019-03-19T20:14:08.558Z,18.10
2019-03-19T20:16:38.318Z,18.10
2019-03-19T20:19:07.996Z,18.10
2019-03-19T20:21:37.775Z,18.00
2019-03-19T20:24:07.445Z,18.00
2019-03-19T20:26:37.201Z,18.10
2019-03-19T20:29:14.215Z,18.00
2019-03-19T20:31:43.903Z,18.00
2019-03-19T20:34:13.635Z,18.00
2019-03-19T20:36:53.469Z,18.10
2019-03-19T20:39:23.150Z,18.10
2019-03-19T20:41:52.939Z,18.10
2019-03-19T20:44:22.611Z,18.10
2019-03-19T20:46:52.301Z,18.10
2019-03-19T20:49:22.061Z,18.00
2019-03-19T20:51:51.827Z,18.00
2019-03-19T20:54:22.488Z,18.00
2019-03-19T20:56:52.251Z,17.90
2019-03-19T20:59:22.493Z,17.90
2019-03-19T21:01:52.234Z,17.90
2019-03-19T21:04:21.915Z,17.90
2019-03-19T21:06:51.679Z,17.90
2019-03-19T21:09:21.360Z,18.00
2019-03-19T21:11:53.265Z,17.90
2019-03-19T21:14:22.690Z,18.00
2019-03-19T21:16:52.452Z,18.00
2019-03-19T21:19:22.135Z,18.00
2019-03-19T21:21:51.823Z,18.00
2019-03-19T21:24:21.574Z,18.00
2019-03-19T21:26:51.243Z,18.00
2019-03-19T21:29:20.919Z,18.00
2019-03-19T21:31:50.618Z,18.10
2019-03-19T21:34:20.294Z,18.10
2019-03-19T21:36:50.005Z,18.20
2019-03-19T21:39:19.715Z,18.20
2019-03-19T21:41:49.407Z,18.20
2019-03-19T21:44:19.087Z,18.20
2019-03-19T21:46:48.767Z,18.20
2019-03-19T21:49:18.519Z,18.20
2019-03-19T21:51:48.209Z,18.20
2019-03-19T21:54:17.961Z,18.20
2019-03-19T21:56:47.646Z,18.20
2019-03-19T21:59:17.402Z,18.20
2019-03-19T22:01:47.093Z,18.20
2019-03-19T22:04:16.822Z,18.20
2019-03-19T22:06:46.514Z,18.20
2019-03-19T22:09:16.202Z,18.20
2019-03-19T22:11:45.879Z,18.10
2019-03-19T22:14:15.559Z,18.10
2019-03-19T22:16:45.403Z,18.10
2019-03-19T22:19:15.098Z,18.10
2019-03-19T22:21:44.791Z,18.00
2019-03-19T22:24:14.486Z,18.10
2019-03-19T22:26:44.182Z,18.00
2019-03-19T22:29:13.936Z,18.00
2019-03-19T22:31:43.625Z,18.00
2019-03-19T22:34:14.281Z,18.00
2019-03-19T22:36:44.340Z,18.00
2019-03-19T22:39:14.014Z,17.90
2019-03-19T22:41:43.702Z,17.90
2019-03-19T22:44:13.391Z,17.90
2019-03-19T22:46:43.073Z,17.90
2019-03-19T22:49:12.885Z,17.80
2019-03-19T22:51:42.579Z,17.80
2019-03-19T22:54:13.416Z,17.80
2019-03-19T22:56:44.074Z,17.80
2019-03-19T22:59:13.851Z,17.80
2019-03-19T23:01:44.836Z,17.80
2019-03-19T23:04:14.582Z,17.80
2019-03-19T23:06:44.273Z,17.70
2019-03-19T23:09:14.023Z,17.80
2019-03-19T23:11:43.711Z,17.80
2019-03-19T23:14:13.451Z,17.80
2019-03-19T23:16:43.210Z,17.80
2019-03-19T23:19:12.960Z,17.80
2019-03-19T23:21:42.723Z,17.80
2019-03-19T23:24:12.397Z,17.80
2019-03-19T23:26:42.087Z,17.80
2019-03-19T23:29:11.839Z,17.70
2019-03-19T23:31:41.528Z,17.80
2019-03-19T23:34:11.267Z,17.80
2019-03-19T23:36:40.958Z,17.70
2019-03-19T23:39:10.647Z,17.70
2019-03-19T23:41:40.330Z,17.70
2019-03-19T23:44:10.015Z,17.70
2019-03-19T23:46:39.771Z,17.60
2019-03-19T23:49:09.443Z,17.60
2019-03-19T23:51:39.203Z,17.60
2019-03-19T23:54:08.919Z,17.60
2019-03-19T23:56:38.655Z,17.50
2019-03-19T23:59:08.330Z,17.50
